createdAt,value
2023-01-18T00:00:16.688Z,96977.97
2023-01-18T00:02:46.873Z,96969.38
2023-01-18T00:05:14.555Z,96962.88
2023-01-18T00:07:41.982Z,96954.91
2023-01-18T00:10:10.213Z,96936.78
2023-01-18T00:12:37.570Z,96938.56
2023-01-18T00:15:05.654Z,96935.38
2023-01-18T00:17:33.459Z,96919.72
2023-01-18T00:20:00.835Z,96916.19
2023-01-18T00:22:28.170Z,96902.72
2023-01-18T00:24:55.763Z,96908.31
2023-01-18T00:27:23.170Z,96929.16
2023-01-18T00:29:50.571Z,96938.94
2023-01-18T00:32:18.213Z,96961.66
2023-01-18T00:34:47.816Z,96982.41
2023-01-18T00:37:16.648Z,97005.16
2023-01-18T00:39:44.259Z,97035.94
2023-01-18T00:42:30.394Z,97063.12
2023-01-18T00:44:58.063Z,97070.41
2023-01-18T00:47:25.427Z,97073.66
2023-01-18T00:49:52.800Z,97073.91
2023-01-18T00:52:20.484Z,97084.34
2023-01-18T00:54:47.961Z,97080.84
2023-01-18T00:57:15.359Z,97074.94
2023-01-18T00:59:43.024Z,97069.22
2023-01-18T01:02:10.496Z,97064.53
2023-01-18T01:04:57.073Z,97061.63
2023-01-18T01:07:24.739Z,97065.63
2023-01-18T01:09:52.143Z,97054.47
2023-01-18T01:12:38.010Z,97047.44
2023-01-18T01:15:25.038Z,97031.62
2023-01-18T01:18:10.969Z,97030.47
2023-01-18T01:20:57.587Z,97036.16
2023-01-18T01:23:43.926Z,97021.09
2023-01-18T01:26:12.548Z,97023.78
2023-01-18T01:28:45.687Z,97021.19
2023-01-18T01:31:16.118Z,97023.97
2023-01-18T01:33:44.937Z,97033.81
2023-01-18T01:36:15.264Z,97044.00
2023-01-18T01:38:42.675Z,97064.69
2023-01-18T01:41:25.277Z,97060.56
2023-01-18T01:43:55.588Z,97072.59
2023-01-18T01:46:49.080Z,97060.44
2023-01-18T01:49:23.908Z,97062.66
2023-01-18T01:52:15.313Z,97080.63
2023-01-18T01:54:53.920Z,97089.87
2023-01-18T01:57:27.283Z,97080.63
2023-01-18T02:00:08.598Z,97066.31
2023-01-18T02:02:39.857Z,97068.22
2023-01-18T02:05:09.117Z,97068.72
2023-01-18T02:07:36.738Z,97077.25
2023-01-18T02:10:05.884Z,97069.47
2023-01-18T02:12:35.277Z,97081.34
2023-01-18T02:15:03.111Z,97090.75
2023-01-18T02:18:05.917Z,97108.03
2023-01-18T02:20:50.951Z,97121.28
2023-01-18T02:23:56.053Z,97123.28
2023-01-18T02:26:51.692Z,97123.72
2023-01-18T02:29:29.447Z,97115.16
2023-01-18T02:32:20.971Z,97120.41
2023-01-18T02:34:50.344Z,97115.62
2023-01-18T02:37:31.145Z,97121.59
2023-01-18T02:40:10.367Z,97104.41
2023-01-18T02:42:58.348Z,97109.81
2023-01-18T02:45:50.288Z,97103.56
2023-01-18T02:48:19.981Z,97109.47
2023-01-18T02:50:47.410Z,97115.97
2023-01-18T02:53:15.055Z,97118.38
2023-01-18T02:56:21.753Z,97127.56
2023-01-18T02:58:53.982Z,97122.00
2023-01-18T03:01:26.603Z,97110.44
2023-01-18T03:03:57.244Z,97108.62
2023-01-18T03:06:28.457Z,97114.78
2023-01-18T03:08:56.931Z,97109.75
2023-01-18T03:11:33.623Z,97115.22
2023-01-18T03:14:12.018Z,97111.00
2023-01-18T03:16:58.342Z,97105.75
2023-01-18T03:19:55.123Z,97102.75
2023-01-18T03:22:44.540Z,97103.88
2023-01-18T03:25:14.056Z,97092.97
2023-01-18T03:28:01.927Z,97094.19
2023-01-18T03:30:49.152Z,97096.81
2023-01-18T03:33:37.455Z,97096.03
2023-01-18T03:36:06.679Z,97081.47
2023-01-18T03:38:34.975Z,97077.62
2023-01-18T03:41:02.973Z,97078.31
2023-01-18T03:43:36.480Z,97078.06
2023-01-18T03:46:05.075Z,97071.91
2023-01-18T03:48:32.592Z,97069.19
2023-01-18T03:51:26.334Z,97077.06
2023-01-18T03:54:09.675Z,97073.78
2023-01-18T03:57:03.373Z,97082.94
2023-01-18T03:59:34.968Z,97082.19
2023-01-18T04:02:03.845Z,97094.63
2023-01-18T04:04:31.516Z,97103.78
2023-01-18T04:06:59.123Z,97109.63
2023-01-18T04:09:27.029Z,97114.81
2023-01-18T04:11:54.692Z,97118.44
2023-01-18T04:14:22.057Z,97113.25
2023-01-18T04:16:49.478Z,97107.59
2023-01-18T04:19:17.707Z,97092.88
2023-01-18T04:21:45.167Z,97089.25
2023-01-18T04:24:12.600Z,97072.75
2023-01-18T04:26:40.213Z,97087.53
2023-01-18T04:29:09.049Z,97090.81
2023-01-18T04:31:36.503Z,97084.34
2023-01-18T04:34:04.219Z,97107.06
2023-01-18T04:36:31.606Z,97124.41
2023-01-18T04:38:59.325Z,97120.22
2023-01-18T04:41:27.052Z,97136.94
2023-01-18T04:43:54.483Z,97149.50
2023-01-18T04:46:21.883Z,97141.88
2023-01-18T04:48:51.652Z,97127.22
2023-01-18T04:51:19.288Z,97132.81
2023-01-18T04:53:47.764Z,97142.06
2023-01-18T04:56:15.683Z,97141.38
2023-01-18T04:58:43.444Z,97160.56
2023-01-18T05:01:14.384Z,97160.38
2023-01-18T05:03:42.196Z,97170.00
2023-01-18T05:06:11.227Z,97184.19
2023-01-18T05:08:42.093Z,97186.88
2023-01-18T05:11:11.948Z,97199.38
2023-01-18T05:13:40.194Z,97213.16
2023-01-18T05:16:10.381Z,97209.91
2023-01-18T05:18:38.133Z,97209.38
2023-01-18T05:21:05.742Z,97217.34
2023-01-18T05:23:33.410Z,97208.44
2023-01-18T05:26:01.053Z,97217.63
2023-01-18T05:28:28.511Z,97218.66
2023-01-18T05:30:55.915Z,97220.94
2023-01-18T05:33:23.550Z,97221.38
2023-01-18T05:35:52.384Z,97209.53
2023-01-18T05:38:20.537Z,97219.13
2023-01-18T05:40:52.230Z,97208.66
2023-01-18T05:43:21.434Z,97203.53
2023-01-18T05:45:49.267Z,97209.00
2023-01-18T05:48:16.935Z,97197.78
2023-01-18T05:50:46.027Z,97180.28
2023-01-18T05:53:15.336Z,97150.41
2023-01-18T05:55:42.939Z,97157.78
2023-01-18T05:58:10.742Z,97181.28
2023-01-18T06:00:38.404Z,97172.94
2023-01-18T06:03:06.067Z,97166.25
2023-01-18T06:05:33.408Z,97169.38
2023-01-18T06:08:00.796Z,97163.84
2023-01-18T06:10:28.548Z,97179.63
2023-01-18T06:12:56.314Z,97184.72
2023-01-18T06:15:23.868Z,97209.53
2023-01-18T06:17:51.532Z,97218.50
2023-01-18T06:20:18.902Z,97213.94
2023-01-18T06:22:46.665Z,97221.03
2023-01-18T06:25:14.384Z,97219.81
2023-01-18T06:27:41.770Z,97201.63
2023-01-18T06:30:11.066Z,97202.25
2023-01-18T06:32:38.703Z,97190.09
2023-01-18T06:35:06.473Z,97166.44
2023-01-18T06:37:33.924Z,97114.31
2023-01-18T06:40:02.867Z,97144.59
2023-01-18T06:42:30.400Z,97158.66
2023-01-18T06:44:57.729Z,97177.94
2023-01-18T06:47:25.397Z,97214.34
2023-01-18T06:49:52.776Z,97227.28
2023-01-18T06:52:20.113Z,97241.63
2023-01-18T06:54:47.837Z,97256.81
2023-01-18T06:57:15.575Z,97238.12
2023-01-18T06:59:42.918Z,97253.16
2023-01-18T07:02:14.173Z,97282.69
2023-01-18T07:04:44.158Z,97305.03
2023-01-18T07:07:12.825Z,97298.47
2023-01-18T07:09:40.158Z,97281.78
2023-01-18T07:12:07.681Z,97281.34
2023-01-18T07:14:35.293Z,97282.50
2023-01-18T07:17:02.672Z,97301.44
2023-01-18T07:19:30.120Z,97311.41
2023-01-18T07:21:58.889Z,97321.50
2023-01-18T07:24:26.503Z,97339.28
2023-01-18T07:26:54.956Z,97349.91
2023-01-18T07:29:22.696Z,97356.16
2023-01-18T07:31:50.162Z,97367.22
2023-01-18T07:34:17.792Z,97361.88
2023-01-18T07:36:45.597Z,97346.59
2023-01-18T07:39:13.155Z,97342.84
2023-01-18T07:41:42.010Z,97337.19
2023-01-18T07:44:10.676Z,97342.66
2023-01-18T07:46:38.529Z,97356.41
2023-01-18T07:49:06.025Z,97366.56
2023-01-18T07:51:34.919Z,97386.63
2023-01-18T07:54:02.317Z,97395.03
2023-01-18T07:56:29.657Z,97408.53
2023-01-18T07:58:57.359Z,97404.75
2023-01-18T08:01:24.859Z,97403.09
2023-01-18T08:03:54.643Z,97413.12
2023-01-18T08:06:27.381Z,97424.00
2023-01-18T08:08:55.862Z,97432.69
2023-01-18T08:11:23.492Z,97446.28
2023-01-18T08:13:52.624Z,97433.44
2023-01-18T08:16:20.388Z,97442.66
2023-01-18T08:18:50.785Z,97444.81
2023-01-18T08:21:18.224Z,97458.38
2023-01-18T08:23:46.291Z,97461.22
2023-01-18T08:26:15.123Z,97481.62
2023-01-18T08:28:44.648Z,97475.03
2023-01-18T08:31:15.608Z,97480.13
2023-01-18T08:33:45.955Z,97475.44
2023-01-18T08:36:17.928Z,97475.28
2023-01-18T08:38:53.143Z,97462.53
2023-01-18T08:41:21.678Z,97481.69
2023-01-18T08:43:50.704Z,97468.69
2023-01-18T08:46:18.668Z,97478.72
2023-01-18T08:48:52.279Z,97478.28
2023-01-18T08:51:20.471Z,97483.06
2023-01-18T08:53:48.333Z,97488.75
2023-01-18T08:56:15.787Z,97512.91
2023-01-18T08:58:43.127Z,97512.94
2023-01-18T09:01:10.867Z,97523.09
2023-01-18T09:03:38.449Z,97529.78
2023-01-18T09:06:12.696Z,97532.16
2023-01-18T09:08:40.696Z,97540.63
2023-01-18T09:11:10.264Z,97553.38
2023-01-18T09:13:54.594Z,97566.28
2023-01-18T09:16:27.044Z,97591.00
2023-01-18T09:18:56.122Z,97607.66
2023-01-18T09:21:23.971Z,97620.56
2023-01-18T09:23:51.741Z,97627.78
2023-01-18T09:26:21.105Z,97633.78
2023-01-18T09:28:52.192Z,97643.09
2023-01-18T09:31:21.703Z,97650.81
2023-01-18T09:33:53.579Z,97654.94
2023-01-18T09:36:26.522Z,97665.16
2023-01-18T09:38:55.429Z,97665.94
2023-01-18T09:41:31.729Z,97658.31
2023-01-18T09:44:18.039Z,97670.16
2023-01-18T09:46:58.030Z,97679.31
2023-01-18T09:49:52.130Z,97692.59
2023-01-18T09:52:29.024Z,97686.63
2023-01-18T09:55:03.719Z,97688.81
2023-01-18T09:58:10.072Z,97684.91
2023-01-18T10:00:40.971Z,97683.81
2023-01-18T10:03:34.705Z,97677.41
2023-01-18T10:06:09.795Z,97695.94
2023-01-18T10:08:46.619Z,97694.63
2023-01-18T10:11:23.472Z,97700.84
2023-01-18T10:14:00.151Z,97711.94
2023-01-18T10:16:27.742Z,97717.62
2023-01-18T10:18:58.923Z,97725.22
2023-01-18T10:21:51.969Z,97734.72
2023-01-18T10:24:26.355Z,97738.56
2023-01-18T10:26:59.148Z,97731.97
2023-01-18T10:29:38.980Z,97724.28
2023-01-18T10:32:12.806Z,97728.00
2023-01-18T10:34:44.184Z,97734.31
2023-01-18T10:37:40.387Z,97726.94
2023-01-18T10:40:10.301Z,97746.16
2023-01-18T10:42:45.201Z,97762.19
2023-01-18T10:45:21.138Z,97763.91
2023-01-18T10:47:49.662Z,97767.91
2023-01-18T10:50:24.616Z,97775.00
2023-01-18T10:52:51.945Z,97789.66
2023-01-18T10:55:20.149Z,97811.03
2023-01-18T10:57:53.403Z,97806.94
2023-01-18T11:00:33.636Z,97817.75
2023-01-18T11:03:02.811Z,97821.94
2023-01-18T11:05:38.015Z,97825.62
2023-01-18T11:08:22.129Z,97814.97
2023-01-18T11:11:14.586Z,97819.72
2023-01-18T11:13:47.121Z,97823.63
2023-01-18T11:16:20.732Z,97822.94
2023-01-18T11:18:55.628Z,97840.62
2023-01-18T11:21:24.449Z,97849.59
2023-01-18T11:23:52.929Z,97852.69
2023-01-18T11:26:21.805Z,97851.25
2023-01-18T11:29:02.323Z,97855.88
2023-01-18T11:31:32.501Z,97865.25
2023-01-18T11:34:03.917Z,97870.47
2023-01-18T11:36:46.371Z,97870.16
2023-01-18T11:39:17.955Z,97867.50
2023-01-18T11:41:45.463Z,97876.16
2023-01-18T11:44:18.545Z,97872.00
2023-01-18T11:46:50.392Z,97884.97
2023-01-18T11:49:29.760Z,97887.25
2023-01-18T11:52:17.687Z,97896.28
2023-01-18T11:54:48.478Z,97902.28
2023-01-18T11:57:16.130Z,97907.38
2023-01-18T11:59:46.022Z,97909.62
2023-01-18T12:02:36.693Z,97912.97
2023-01-18T12:05:45.830Z,97923.19
2023-01-18T12:08:26.938Z,97926.75
2023-01-18T12:11:17.710Z,97928.25
2023-01-18T12:14:22.005Z,97929.00
2023-01-18T12:16:55.043Z,97940.09
2023-01-18T12:19:41.824Z,97946.13
2023-01-18T12:22:24.692Z,97949.16
2023-01-18T12:25:19.582Z,97952.50
2023-01-18T12:28:02.208Z,97964.66
2023-01-18T12:31:16.200Z,97962.28
2023-01-18T12:33:46.801Z,97958.97
2023-01-18T12:36:32.935Z,97970.09
2023-01-18T12:39:07.780Z,97974.84
2023-01-18T12:42:05.275Z,97989.87
2023-01-18T12:44:49.253Z,97984.41
2023-01-18T12:47:34.953Z,97983.88
2023-01-18T12:50:08.006Z,97984.84
2023-01-18T12:52:42.891Z,97982.59
2023-01-18T12:55:16.503Z,97986.22
2023-01-18T12:57:46.448Z,97996.09
2023-01-18T13:00:31.633Z,97992.38
2023-01-18T13:02:59.151Z,98006.06
2023-01-18T13:05:35.967Z,98020.25
2023-01-18T13:08:09.186Z,98031.81
2023-01-18T13:10:37.208Z,98033.81
2023-01-18T13:13:05.920Z,98034.16
2023-01-18T13:15:47.496Z,98029.13
2023-01-18T13:18:21.647Z,98036.56
2023-01-18T13:21:07.238Z,98043.16
2023-01-18T13:23:55.098Z,98052.97
2023-01-18T13:26:26.322Z,98063.94
2023-01-18T13:29:17.008Z,98080.19
2023-01-18T13:31:45.821Z,98082.53
2023-01-18T13:34:47.729Z,98070.75
2023-01-18T13:37:39.734Z,98069.09
2023-01-18T13:40:20.927Z,98073.94
2023-01-18T13:42:48.422Z,98086.72
2023-01-18T13:45:24.758Z,98080.53
2023-01-18T13:47:57.308Z,98061.00
2023-01-18T13:50:38.062Z,98064.47
2023-01-18T13:53:14.394Z,98072.50
2023-01-18T13:55:52.364Z,98083.56
2023-01-18T13:58:28.125Z,98089.28
2023-01-18T14:00:58.601Z,98088.69
2023-01-18T14:03:29.281Z,98092.09
2023-01-18T14:05:57.429Z,98096.91
2023-01-18T14:08:29.030Z,98104.06
2023-01-18T14:11:03.877Z,98094.41
2023-01-18T14:13:46.443Z,98102.31
2023-01-18T14:16:18.903Z,98112.44
2023-01-18T14:18:52.023Z,98115.34
2023-01-18T14:21:28.911Z,98116.50
2023-01-18T14:23:56.408Z,98120.09
2023-01-18T14:26:28.806Z,98126.03
2023-01-18T14:28:59.544Z,98120.75
2023-01-18T14:31:30.546Z,98130.22
2023-01-18T14:33:57.970Z,98124.50
2023-01-18T14:36:27.437Z,98124.09
2023-01-18T14:39:21.597Z,98130.06
2023-01-18T14:41:55.538Z,98132.84
2023-01-18T14:44:25.847Z,98143.94
2023-01-18T14:46:56.082Z,98151.16
2023-01-18T14:49:35.310Z,98153.91
2023-01-18T14:52:03.783Z,98150.75
2023-01-18T14:54:31.708Z,98158.63
2023-01-18T14:57:03.672Z,98159.28
2023-01-18T14:59:32.175Z,98153.62
2023-01-18T15:02:15.978Z,98153.56
2023-01-18T15:04:45.703Z,98142.41
2023-01-18T15:07:17.372Z,98153.62
2023-01-18T15:09:45.682Z,98148.37
2023-01-18T15:12:16.411Z,98136.88
2023-01-18T15:14:46.132Z,98135.88
2023-01-18T15:17:23.087Z,98137.88
2023-01-18T15:19:53.814Z,98129.69
2023-01-18T15:22:25.568Z,98129.88
2023-01-18T15:24:52.931Z,98136.28
2023-01-18T15:27:20.633Z,98145.03
2023-01-18T15:29:50.456Z,98140.03
2023-01-18T15:32:21.088Z,98140.72
2023-01-18T15:34:50.721Z,98140.87
2023-01-18T15:37:33.672Z,98150.09
2023-01-18T15:40:02.827Z,98160.16
2023-01-18T15:42:37.012Z,98176.72
2023-01-18T15:45:06.154Z,98174.03
2023-01-18T15:47:36.751Z,98194.97
2023-01-18T15:50:06.908Z,98195.19
2023-01-18T15:52:49.525Z,98192.72
2023-01-18T15:55:24.442Z,98198.72
2023-01-18T15:57:59.646Z,98190.03
2023-01-18T16:00:41.044Z,98187.63
2023-01-18T16:03:46.363Z,98186.59
2023-01-18T16:06:16.951Z,98189.84
2023-01-18T16:08:56.791Z,98209.00
2023-01-18T16:11:30.480Z,98225.41
2023-01-18T16:14:00.215Z,98233.75
2023-01-18T16:16:28.206Z,98239.69
2023-01-18T16:19:25.360Z,98229.97
2023-01-18T16:22:06.524Z,98238.66
2023-01-18T16:24:41.084Z,98238.94
2023-01-18T16:27:11.656Z,98224.81
2023-01-18T16:29:44.872Z,98235.84
2023-01-18T16:32:21.751Z,98225.69
2023-01-18T16:34:50.099Z,98221.41
2023-01-18T16:37:18.566Z,98229.31
2023-01-18T16:39:45.992Z,98223.13
2023-01-18T16:42:13.440Z,98232.37
2023-01-18T16:44:43.459Z,98236.06
2023-01-18T16:47:15.639Z,98226.03
2023-01-18T16:49:44.081Z,98226.06
2023-01-18T16:52:13.270Z,98214.75
2023-01-18T16:54:42.527Z,98223.44
2023-01-18T16:57:19.323Z,98237.97
2023-01-18T16:59:47.145Z,98249.25
2023-01-18T17:02:14.875Z,98248.37
2023-01-18T17:04:42.466Z,98247.28
2023-01-18T17:07:10.196Z,98255.06
2023-01-18T17:09:47.960Z,98248.87
2023-01-18T17:12:16.530Z,98242.66
2023-01-18T17:14:44.182Z,98243.38
2023-01-18T17:17:11.682Z,98250.25
2023-01-18T17:19:41.210Z,98250.91
2023-01-18T17:22:08.897Z,98258.00
2023-01-18T17:24:36.718Z,98286.09
2023-01-18T17:27:04.158Z,98292.84
2023-01-18T17:29:31.800Z,98295.94
2023-01-18T17:31:59.436Z,98301.50
2023-01-18T17:34:28.449Z,98302.09
2023-01-18T17:36:58.688Z,98302.56
2023-01-18T17:39:37.440Z,98321.63
2023-01-18T17:42:22.301Z,98318.97
2023-01-18T17:45:02.472Z,98322.59
2023-01-18T17:47:33.998Z,98323.00
2023-01-18T17:50:08.524Z,98332.00
2023-01-18T17:52:37.115Z,98333.78
2023-01-18T17:55:07.042Z,98331.25
2023-01-18T17:57:34.615Z,98339.72
2023-01-18T18:00:02.769Z,98347.22
2023-01-18T18:02:35.526Z,98344.03
2023-01-18T18:05:04.451Z,98351.06
2023-01-18T18:07:31.861Z,98350.13
2023-01-18T18:10:01.329Z,98345.97
2023-01-18T18:12:30.783Z,98341.69
2023-01-18T18:14:58.477Z,98354.56
2023-01-18T18:17:27.595Z,98354.22
2023-01-18T18:19:55.399Z,98348.56
2023-01-18T18:22:23.257Z,98335.75
2023-01-18T18:24:51.116Z,98331.47
2023-01-18T18:27:19.537Z,98329.50
2023-01-18T18:29:46.934Z,98330.44
2023-01-18T18:32:14.772Z,98330.28
2023-01-18T18:34:42.653Z,98332.00
2023-01-18T18:37:10.099Z,98329.56
2023-01-18T18:39:37.437Z,98328.00
2023-01-18T18:42:05.065Z,98314.13
2023-01-18T18:44:32.442Z,98316.53
2023-01-18T18:46:59.900Z,98307.78
2023-01-18T18:49:27.985Z,98312.19
2023-01-18T18:51:56.136Z,98307.06
2023-01-18T18:54:23.594Z,98307.91
2023-01-18T18:56:51.308Z,98312.62
2023-01-18T18:59:18.651Z,98318.47
2023-01-18T19:01:46.194Z,98310.34
2023-01-18T19:04:13.913Z,98309.59
2023-01-18T19:06:41.269Z,98320.03
2023-01-18T19:09:08.652Z,98321.81
2023-01-18T19:11:39.448Z,98328.09
2023-01-18T19:14:07.066Z,98331.34
2023-01-18T19:16:34.698Z,98326.00
2023-01-18T19:19:03.022Z,98317.06
2023-01-18T19:21:30.449Z,98320.53
2023-01-18T19:23:58.144Z,98318.03
2023-01-18T19:26:26.079Z,98321.94
2023-01-18T19:28:53.750Z,98317.50
2023-01-18T19:31:21.228Z,98303.47
2023-01-18T19:33:49.452Z,98311.72
2023-01-18T19:36:16.910Z,98315.31
2023-01-18T19:38:48.021Z,98312.47
2023-01-18T19:41:18.451Z,98316.59
2023-01-18T19:43:49.172Z,98322.72
2023-01-18T19:46:16.644Z,98327.13
2023-01-18T19:48:44.351Z,98326.22
2023-01-18T19:51:21.844Z,98335.84
2023-01-18T19:53:52.832Z,98333.91
2023-01-18T19:56:20.786Z,98324.53
2023-01-18T19:58:49.871Z,98320.41
2023-01-18T20:01:34.849Z,98324.53
2023-01-18T20:04:04.897Z,98333.44
2023-01-18T20:06:32.803Z,98332.44
2023-01-18T20:09:00.230Z,98341.03
2023-01-18T20:11:27.904Z,98336.62
2023-01-18T20:13:55.906Z,98345.31
2023-01-18T20:16:24.526Z,98336.75
2023-01-18T20:18:52.944Z,98340.03
2023-01-18T20:21:20.479Z,98325.22
2023-01-18T20:23:48.313Z,98328.62
2023-01-18T20:26:22.051Z,98330.31
2023-01-18T20:28:53.281Z,98335.41
2023-01-18T20:31:21.028Z,98328.19
2023-01-18T20:33:48.593Z,98330.13
2023-01-18T20:36:16.108Z,98324.87
2023-01-18T20:38:43.804Z,98312.28
2023-01-18T20:41:11.324Z,98314.31
2023-01-18T20:43:38.801Z,98324.09
2023-01-18T20:46:08.396Z,98319.19
2023-01-18T20:48:36.973Z,98322.97
2023-01-18T20:51:06.524Z,98323.13
2023-01-18T20:53:34.547Z,98323.72
2023-01-18T20:56:03.714Z,98319.53
2023-01-18T20:58:31.475Z,98329.09
2023-01-18T21:01:15.691Z,98333.56
2023-01-18T21:03:44.105Z,98325.13
2023-01-18T21:06:12.596Z,98330.91
2023-01-18T21:08:40.108Z,98335.50
2023-01-18T21:11:12.270Z,98333.81
2023-01-18T21:13:39.774Z,98324.25
2023-01-18T21:16:07.131Z,98321.31
2023-01-18T21:18:34.575Z,98314.13
2023-01-18T21:21:02.231Z,98311.28
2023-01-18T21:23:29.782Z,98301.41
2023-01-18T21:25:58.800Z,98290.69
2023-01-18T21:28:26.517Z,98286.47
2023-01-18T21:30:55.614Z,98278.16
2023-01-18T21:33:23.906Z,98272.78
2023-01-18T21:35:54.756Z,98265.94
2023-01-18T21:38:25.693Z,98267.53
2023-01-18T21:40:53.319Z,98273.41
2023-01-18T21:43:40.612Z,98290.16
2023-01-18T21:46:10.983Z,98307.78
2023-01-18T21:48:38.681Z,98320.16
2023-01-18T21:51:24.684Z,98322.66
2023-01-18T21:54:11.113Z,98327.44
2023-01-18T21:56:38.533Z,98326.63
2023-01-18T21:59:06.151Z,98336.41
2023-01-18T22:01:37.771Z,98328.50
2023-01-18T22:04:29.434Z,98335.59
2023-01-18T22:07:00.772Z,98328.66
2023-01-18T22:09:29.772Z,98326.78
2023-01-18T22:11:57.597Z,98318.84
2023-01-18T22:14:26.025Z,98331.91
2023-01-18T22:16:53.763Z,98327.38
2023-01-18T22:19:21.262Z,98336.22
2023-01-18T22:21:48.691Z,98328.62
2023-01-18T22:24:17.470Z,98322.44
2023-01-18T22:26:45.173Z,98313.09
2023-01-18T22:29:12.855Z,98314.50
2023-01-18T22:31:40.535Z,98306.09
2023-01-18T22:34:08.328Z,98297.47
2023-01-18T22:36:35.722Z,98312.28
2023-01-18T22:39:03.420Z,98307.09
2023-01-18T22:41:30.870Z,98308.97
2023-01-18T22:43:58.265Z,98300.19
2023-01-18T22:46:26.277Z,98299.53
2023-01-18T22:48:53.770Z,98301.34
2023-01-18T22:51:23.045Z,98309.28
2023-01-18T22:53:51.264Z,98300.63
2023-01-18T22:56:23.868Z,98293.63
2023-01-18T22:58:52.128Z,98310.19
2023-01-18T23:01:22.340Z,98310.19
2023-01-18T23:03:52.840Z,98313.91
2023-01-18T23:06:20.530Z,98307.59
2023-01-18T23:08:48.405Z,98300.87
2023-01-18T23:11:24.677Z,98295.34
2023-01-18T23:14:13.625Z,98298.03
2023-01-18T23:17:00.766Z,98290.03
2023-01-18T23:19:30.669Z,98282.84
2023-01-18T23:21:58.288Z,98279.44
2023-01-18T23:24:25.745Z,98279.69
2023-01-18T23:26:53.498Z,98275.41
2023-01-18T23:29:21.183Z,98261.59
2023-01-18T23:31:48.635Z,98259.25
2023-01-18T23:34:16.464Z,98265.09
2023-01-18T23:36:43.812Z,98260.16
2023-01-18T23:39:30.081Z,98252.19
2023-01-18T23:42:16.319Z,98254.03
2023-01-18T23:45:02.189Z,98249.66
2023-01-18T23:47:48.284Z,98254.84
2023-01-18T23:50:34.267Z,98236.72
2023-01-18T23:53:20.719Z,98240.44
2023-01-18T23:55:52.808Z,98236.72
2023-01-18T23:58:20.343Z,98225.34
